createdAt,value
2022-09-02T00:02:16.941Z,9.85
2022-09-02T00:05:05.424Z,9.78
2022-09-02T00:07:58.810Z,9.69
2022-09-02T00:10:56.833Z,9.65
2022-09-02T00:13:49.196Z,9.62
2022-09-02T00:16:36.137Z,9.53
2022-09-02T00:19:35.819Z,9.44
2022-09-02T00:22:39.360Z,9.36
2022-09-02T00:25:28.448Z,9.29
2022-09-02T00:28:21.307Z,9.23
2022-09-02T00:31:08.843Z,9.14
2022-09-02T00:34:04.947Z,9.13
2022-09-02T00:36:51.792Z,9.08
2022-09-02T00:39:40.919Z,9.09
2022-09-02T00:42:33.451Z,9.01
2022-09-02T00:45:40.189Z,8.90
2022-09-02T00:48:28.896Z,9.04
2022-09-02T00:51:19.077Z,9.14
2022-09-02T00:54:09.670Z,9.13
2022-09-02T00:57:07.383Z,9.18
2022-09-02T01:00:13.874Z,9.29
2022-09-02T01:03:04.146Z,9.33
2022-09-02T01:05:55.396Z,9.23
2022-09-02T01:08:54.719Z,9.09
2022-09-02T01:11:54.136Z,9.03
2022-09-02T01:14:40.982Z,9.08
2022-09-02T01:17:36.741Z,9.14
2022-09-02T01:20:28.746Z,9.06
2022-09-02T01:23:20.568Z,8.99
2022-09-02T01:26:10.843Z,8.98
2022-09-02T01:28:57.302Z,9.03
2022-09-02T01:31:45.020Z,8.94
2022-09-02T01:34:33.993Z,8.86
2022-09-02T01:37:21.698Z,8.79
2022-09-02T01:40:15.622Z,8.73
2022-09-02T01:43:19.079Z,8.64
2022-09-02T01:46:15.908Z,8.57
2022-09-02T01:49:21.367Z,8.51
2022-09-02T01:52:11.077Z,8.50
2022-09-02T01:54:58.181Z,8.49
2022-09-02T01:57:48.554Z,8.51
2022-09-02T02:00:35.820Z,8.39
2022-09-02T02:03:22.591Z,8.68
2022-09-02T02:06:11.332Z,8.75
2022-09-02T02:08:59.126Z,8.76
2022-09-02T02:11:51.096Z,8.76
2022-09-02T02:14:39.398Z,8.83
2022-09-02T02:17:26.354Z,8.65
2022-09-02T02:20:21.616Z,8.53
2022-09-02T02:23:13.939Z,8.43
2022-09-02T02:26:00.870Z,8.61
2022-09-02T02:28:48.068Z,8.49
2022-09-02T02:31:38.811Z,8.45
2022-09-02T02:34:25.915Z,8.45
2022-09-02T02:37:15.855Z,8.40
2022-09-02T02:40:03.281Z,8.48
2022-09-02T02:42:54.882Z,8.47
2022-09-02T02:45:43.474Z,8.46
2022-09-02T02:48:38.631Z,8.38
2022-09-02T02:51:26.734Z,8.28
2022-09-02T02:54:16.261Z,8.23
2022-09-02T02:57:04.431Z,8.13
2022-09-02T02:59:51.103Z,8.10
2022-09-02T03:02:39.074Z,8.05
2022-09-02T03:05:33.818Z,8.04
2022-09-02T03:08:24.574Z,8.05
2022-09-02T03:11:14.499Z,8.06
2022-09-02T03:14:00.994Z,8.04
2022-09-02T03:16:47.841Z,8.02
2022-09-02T03:19:37.024Z,7.97
2022-09-02T03:22:25.398Z,7.94
2022-09-02T03:25:16.081Z,7.89
2022-09-02T03:28:05.779Z,7.88
2022-09-02T03:30:52.810Z,7.93
2022-09-02T03:33:46.478Z,7.90
2022-09-02T03:36:42.496Z,7.88
2022-09-02T03:39:35.720Z,7.87
2022-09-02T03:42:31.045Z,7.90
2022-09-02T03:45:18.701Z,7.90
2022-09-02T03:48:06.983Z,7.92
2022-09-02T03:50:59.938Z,7.87
2022-09-02T03:53:48.905Z,7.83
2022-09-02T03:56:40.388Z,7.81
2022-09-02T03:59:31.466Z,7.84
2022-09-02T04:02:22.290Z,7.84
2022-09-02T04:05:10.323Z,7.83
2022-09-02T04:08:04.963Z,7.68
2022-09-02T04:10:56.403Z,7.71
2022-09-02T04:13:50.055Z,7.66
2022-09-02T04:16:40.016Z,7.67
2022-09-02T04:19:31.650Z,7.76
2022-09-02T04:22:19.609Z,7.77
2022-09-02T04:25:12.182Z,7.69
2022-09-02T04:28:01.808Z,7.73
2022-09-02T04:30:50.648Z,7.73
2022-09-02T04:33:57.061Z,7.71
2022-09-02T04:36:51.607Z,7.73
2022-09-02T04:39:38.882Z,7.73
2022-09-02T04:42:26.035Z,7.74
2022-09-02T04:45:32.158Z,7.78
2022-09-02T04:48:30.433Z,7.82
2022-09-02T04:51:25.267Z,7.86
2022-09-02T04:54:26.340Z,8.07
2022-09-02T04:57:18.973Z,8.19
2022-09-02T05:00:07.128Z,8.30
2022-09-02T05:03:14.644Z,8.40
2022-09-02T05:06:32.895Z,8.44
2022-09-02T05:09:32.691Z,8.47
2022-09-02T05:12:32.623Z,8.51
2022-09-02T05:15:21.192Z,8.59
2022-09-02T05:18:10.916Z,8.69
2022-09-02T05:21:22.639Z,8.73
2022-09-02T05:24:12.903Z,8.73
2022-09-02T05:27:02.369Z,8.76
2022-09-02T05:30:19.465Z,8.81
2022-09-02T05:33:09.245Z,8.84
2022-09-02T05:36:23.512Z,8.91
2022-09-02T05:39:15.325Z,8.99
2022-09-02T05:42:05.141Z,9.18
2022-09-02T05:44:55.573Z,9.27
2022-09-02T05:47:51.603Z,9.52
2022-09-02T05:50:38.686Z,9.67
2022-09-02T05:53:46.984Z,9.91
2022-09-02T05:57:00.925Z,10.14
2022-09-02T05:59:49.308Z,10.33
2022-09-02T06:02:45.929Z,10.49
2022-09-02T06:06:06.537Z,10.60
2022-09-02T06:09:10.160Z,10.87
2022-09-02T06:11:59.500Z,11.13
2022-09-02T06:14:56.139Z,11.49
2022-09-02T06:17:45.863Z,11.89
2022-09-02T06:20:35.935Z,12.11
2022-09-02T06:23:22.900Z,12.48
2022-09-02T06:26:18.351Z,12.53
2022-09-02T06:29:06.344Z,12.63
2022-09-02T06:31:54.277Z,12.81
2022-09-02T06:34:43.410Z,12.68
2022-09-02T06:37:30.877Z,12.83
2022-09-02T06:40:19.614Z,13.05
2022-09-02T06:43:09.409Z,13.28
2022-09-02T06:46:10.211Z,13.23
2022-09-02T06:48:58.102Z,13.23
2022-09-02T06:51:48.845Z,13.47
2022-09-02T06:54:36.839Z,13.77
2022-09-02T06:57:34.106Z,13.90
2022-09-02T07:00:27.409Z,13.92
2022-09-02T07:03:31.138Z,14.14
2022-09-02T07:06:18.019Z,14.32
2022-09-02T07:09:10.958Z,14.49
2022-09-02T07:12:04.016Z,14.61
2022-09-02T07:14:55.678Z,14.69
2022-09-02T07:17:49.764Z,14.89
2022-09-02T07:20:56.587Z,14.89
2022-09-02T07:23:43.448Z,14.92
2022-09-02T07:26:30.791Z,15.15
2022-09-02T07:29:18.442Z,15.27
2022-09-02T07:32:06.759Z,15.56
2022-09-02T07:34:55.171Z,15.69
2022-09-02T07:37:41.902Z,15.50
2022-09-02T07:40:30.244Z,15.65
2022-09-02T07:43:17.167Z,15.80
2022-09-02T07:46:04.922Z,15.85
2022-09-02T07:48:52.718Z,15.94
2022-09-02T07:51:44.666Z,15.99
2022-09-02T07:54:32.667Z,16.08
2022-09-02T07:57:22.382Z,16.01
2022-09-02T08:00:11.710Z,16.24
2022-09-02T08:03:01.879Z,16.31
2022-09-02T08:05:54.395Z,16.49
2022-09-02T08:08:43.844Z,16.68
2022-09-02T08:11:32.860Z,16.76
2022-09-02T08:14:21.817Z,16.90
2022-09-02T08:17:08.608Z,17.01
2022-09-02T08:19:55.614Z,17.12
2022-09-02T08:22:45.211Z,17.19
2022-09-02T08:25:37.850Z,17.44
2022-09-02T08:28:24.484Z,17.57
2022-09-02T08:31:11.278Z,17.67
2022-09-02T08:33:58.171Z,17.83
2022-09-02T08:36:54.222Z,18.10
2022-09-02T08:39:43.786Z,18.37
2022-09-02T08:42:34.745Z,18.47
2022-09-02T08:45:28.450Z,18.59
2022-09-02T08:48:22.460Z,18.68
2022-09-02T08:51:14.315Z,18.73
2022-09-02T08:54:07.163Z,19.03
2022-09-02T08:56:54.024Z,19.15
2022-09-02T08:59:43.959Z,19.29
2022-09-02T09:02:46.714Z,19.33
2022-09-02T09:05:47.137Z,19.39
2022-09-02T09:08:45.076Z,19.46
2022-09-02T09:11:42.917Z,19.48
2022-09-02T09:14:34.873Z,19.48
2022-09-02T09:17:29.418Z,19.52
2022-09-02T09:20:19.861Z,19.49
2022-09-02T09:23:21.885Z,19.80
2022-09-02T09:26:11.488Z,20.06
2022-09-02T09:28:59.768Z,20.33
2022-09-02T09:31:51.778Z,20.48
2022-09-02T09:35:08.381Z,20.52
2022-09-02T09:37:56.803Z,20.44
2022-09-02T09:40:43.540Z,20.27
2022-09-02T09:43:32.484Z,20.39
2022-09-02T09:46:27.954Z,20.65
2022-09-02T09:49:27.101Z,20.68
2022-09-02T09:52:23.849Z,20.69
2022-09-02T09:55:19.129Z,20.36
2022-09-02T09:58:11.633Z,20.26
2022-09-02T10:01:00.786Z,20.00
2022-09-02T10:03:51.084Z,19.78
2022-09-02T10:06:42.037Z,19.80
2022-09-02T10:09:35.922Z,19.92
2022-09-02T10:12:33.309Z,19.95
2022-09-02T10:15:30.043Z,20.08
2022-09-02T10:18:24.693Z,20.35
2022-09-02T10:21:20.676Z,20.43
2022-09-02T10:24:22.658Z,20.32
2022-09-02T10:27:17.951Z,20.13
2022-09-02T10:30:08.565Z,19.95
2022-09-02T10:33:14.828Z,20.25
2022-09-02T10:36:17.142Z,20.74
2022-09-02T10:39:18.957Z,20.66
2022-09-02T10:42:18.217Z,20.36
2022-09-02T10:45:15.545Z,20.28
2022-09-02T10:48:23.986Z,20.03
2022-09-02T10:51:18.451Z,19.92
2022-09-02T10:54:26.710Z,19.81
2022-09-02T10:57:19.977Z,19.97
2022-09-02T11:00:13.960Z,20.14
2022-09-02T11:03:13.292Z,20.16
2022-09-02T11:06:06.852Z,20.64
2022-09-02T11:08:56.446Z,20.93
2022-09-02T11:11:48.534Z,21.25
2022-09-02T11:14:43.657Z,21.32
2022-09-02T11:17:38.116Z,21.31
2022-09-02T11:20:32.872Z,21.55
2022-09-02T11:23:28.474Z,21.58
2022-09-02T11:26:21.332Z,21.78
2022-09-02T11:29:15.420Z,21.86
2022-09-02T11:32:16.729Z,21.95
2022-09-02T11:35:09.368Z,22.17
2022-09-02T11:38:02.263Z,22.18
2022-09-02T11:44:34.978Z,22.25
2022-09-02T11:47:45.765Z,22.20
2022-09-02T11:50:48.581Z,22.11
2022-09-02T11:53:40.182Z,21.81
2022-09-02T11:56:30.643Z,21.59
2022-09-02T11:59:22.943Z,21.85
2022-09-02T12:02:09.523Z,21.72
2022-09-02T12:05:42.791Z,21.53
2022-09-02T12:09:03.604Z,21.67
2022-09-02T12:11:54.951Z,21.94
2022-09-02T12:15:15.049Z,22.06
2022-09-02T12:18:15.407Z,22.24
2022-09-02T12:21:18.230Z,22.33
2022-09-02T12:24:27.031Z,22.12
2022-09-02T12:27:25.363Z,21.68
2022-09-02T12:30:13.917Z,21.77
2022-09-02T12:33:12.674Z,21.76
2022-09-02T12:36:00.403Z,21.77
2022-09-02T12:38:52.355Z,21.59
2022-09-02T12:41:45.618Z,21.50
2022-09-02T12:44:39.586Z,21.32
2022-09-02T12:47:34.568Z,21.30
2022-09-02T12:50:28.063Z,21.21
2022-09-02T12:53:35.855Z,21.29
2022-09-02T12:56:25.364Z,21.20
2022-09-02T12:59:13.374Z,21.10
2022-09-02T13:02:18.343Z,21.45
2022-09-02T13:05:18.215Z,21.70
2022-09-02T13:08:58.789Z,22.15
2022-09-02T13:12:16.514Z,22.39
2022-09-02T13:15:25.889Z,22.40
2022-09-02T13:18:53.323Z,22.08
2022-09-02T13:22:17.249Z,21.78
2022-09-02T13:25:26.305Z,21.62
2022-09-02T13:28:51.943Z,21.46
2022-09-02T13:31:40.659Z,21.42
2022-09-02T13:34:30.916Z,21.36
2022-09-02T13:37:39.978Z,21.19
2022-09-02T13:40:28.744Z,21.11
2022-09-02T13:43:20.414Z,21.14
2022-09-02T13:46:10.592Z,20.94
2022-09-02T13:48:57.261Z,20.98
2022-09-02T13:51:45.500Z,21.03
2022-09-02T13:54:34.971Z,20.87
2022-09-02T13:57:25.892Z,20.83
2022-09-02T14:00:17.287Z,20.73
2022-09-02T14:03:08.259Z,20.76
2022-09-02T14:05:58.372Z,20.81
2022-09-02T14:08:45.716Z,20.65
2022-09-02T14:11:39.549Z,20.49
2022-09-02T14:14:27.096Z,20.64
2022-09-02T14:17:22.331Z,20.99
2022-09-02T14:20:19.093Z,21.38
2022-09-02T14:23:06.273Z,21.46
2022-09-02T14:25:55.451Z,21.55
2022-09-02T14:28:42.028Z,21.56
2022-09-02T14:31:31.030Z,21.38
2022-09-02T14:34:34.815Z,21.30
2022-09-02T14:37:25.632Z,21.22
2022-09-02T14:40:13.311Z,21.08
2022-09-02T14:43:00.083Z,20.86
2022-09-02T14:45:50.510Z,20.74
2022-09-02T14:48:39.907Z,20.69
2022-09-02T14:51:33.663Z,20.51
2022-09-02T14:54:39.591Z,20.29
2022-09-02T14:57:28.634Z,20.03
2022-09-02T15:00:21.586Z,20.00
2022-09-02T15:03:10.299Z,19.88
2022-09-02T15:05:57.288Z,19.72
2022-09-02T15:08:44.616Z,19.53
2022-09-02T15:11:33.109Z,19.54
2022-09-02T15:14:20.540Z,19.28
2022-09-02T15:17:09.989Z,19.25
2022-09-02T15:19:56.785Z,19.33
2022-09-02T15:22:43.651Z,19.55
2022-09-02T15:25:30.755Z,19.90
2022-09-02T15:28:18.664Z,20.28
2022-09-02T15:31:05.656Z,20.59
2022-09-02T15:33:53.207Z,20.70
2022-09-02T15:36:39.989Z,20.69
2022-09-02T15:39:27.216Z,20.56
2022-09-02T15:42:14.913Z,20.46
2022-09-02T15:45:03.613Z,20.11
2022-09-02T15:47:50.163Z,20.03
2022-09-02T15:50:36.910Z,20.16
2022-09-02T15:53:23.699Z,20.27
2022-09-02T15:56:17.882Z,20.49
2022-09-02T15:59:09.299Z,20.74
2022-09-02T16:01:58.856Z,20.90
2022-09-02T16:04:45.893Z,21.05
2022-09-02T16:07:32.604Z,21.19
2022-09-02T16:10:19.487Z,21.14
2022-09-02T16:13:06.193Z,21.18
2022-09-02T16:16:01.298Z,21.03
2022-09-02T16:18:53.402Z,20.87
2022-09-02T16:21:41.247Z,20.64
2022-09-02T16:24:27.890Z,20.41
2022-09-02T16:27:14.413Z,20.31
2022-09-02T16:30:01.102Z,20.14
2022-09-02T16:32:50.751Z,20.04
2022-09-02T16:35:39.158Z,20.05
2022-09-02T16:38:26.052Z,19.90
2022-09-02T16:41:24.413Z,19.80
2022-09-02T16:44:13.166Z,19.66
2022-09-02T16:47:00.043Z,19.62
2022-09-02T16:49:47.262Z,19.61
2022-09-02T16:52:35.401Z,19.61
2022-09-02T16:55:22.058Z,19.50
2022-09-02T16:58:20.270Z,19.47
2022-09-02T17:01:12.401Z,19.40
2022-09-02T17:04:00.258Z,19.15
2022-09-02T17:06:47.007Z,19.03
2022-09-02T17:09:35.141Z,19.06
2022-09-02T17:12:22.531Z,18.83
2022-09-02T17:15:10.161Z,18.62
2022-09-02T17:17:57.318Z,18.41
2022-09-02T17:20:44.192Z,18.27
2022-09-02T17:23:31.017Z,18.11
2022-09-02T17:26:19.864Z,17.91
2022-09-02T17:29:14.078Z,17.64
2022-09-02T17:32:12.977Z,17.33
2022-09-02T17:34:59.871Z,17.08
2022-09-02T17:37:48.267Z,16.86
2022-09-02T17:40:52.457Z,16.67
2022-09-02T17:43:45.538Z,16.53
2022-09-02T17:46:32.309Z,16.38
2022-09-02T17:49:20.576Z,16.20
2022-09-02T17:52:08.529Z,16.05
2022-09-02T17:54:55.399Z,15.89
2022-09-02T17:57:52.964Z,15.74
2022-09-02T18:00:42.380Z,15.56
2022-09-02T18:03:46.126Z,15.38
2022-09-02T18:06:38.321Z,15.20
2022-09-02T18:09:26.933Z,15.05
2022-09-02T18:12:14.218Z,14.93
2022-09-02T18:15:03.201Z,14.82
2022-09-02T18:17:53.716Z,14.69
2022-09-02T18:20:43.188Z,14.60
2022-09-02T18:23:43.870Z,14.53
2022-09-02T18:26:46.422Z,14.42
2022-09-02T18:29:46.446Z,14.33
2022-09-02T18:33:03.494Z,14.25
2022-09-02T18:36:01.131Z,14.02
2022-09-02T18:38:54.553Z,14.07
2022-09-02T18:41:55.075Z,14.02
2022-09-02T18:44:48.469Z,13.91
2022-09-02T18:47:43.258Z,13.87
2022-09-02T18:50:49.909Z,13.78
2022-09-02T18:53:42.550Z,13.73
2022-09-02T18:56:33.467Z,13.65
2022-09-02T18:59:28.661Z,13.60
2022-09-02T19:02:24.142Z,13.52
2022-09-02T19:05:13.073Z,13.47
2022-09-02T19:08:21.378Z,13.43
2022-09-02T19:11:13.750Z,13.38
2022-09-02T19:14:15.990Z,13.32
2022-09-02T19:17:02.894Z,13.27
2022-09-02T19:19:49.510Z,13.21
2022-09-02T19:22:40.521Z,13.14
2022-09-02T19:25:31.488Z,13.10
2022-09-02T19:28:19.938Z,13.06
2022-09-02T19:31:09.165Z,13.01
2022-09-02T19:34:03.146Z,12.97
2022-09-02T19:36:52.698Z,12.90
2022-09-02T19:39:39.229Z,12.85
2022-09-02T19:42:28.474Z,12.78
2022-09-02T19:45:16.590Z,12.74
2022-09-02T19:48:08.070Z,12.69
2022-09-02T19:50:56.688Z,12.64
2022-09-02T19:53:43.958Z,12.61
2022-09-02T19:56:32.459Z,12.58
2022-09-02T19:59:20.658Z,12.55
2022-09-02T20:02:07.521Z,12.50
2022-09-02T20:04:54.363Z,12.45
2022-09-02T20:07:41.839Z,12.46
2022-09-02T20:10:29.910Z,12.42
2022-09-02T20:13:18.030Z,12.35
2022-09-02T20:16:06.787Z,12.32
2022-09-02T20:18:55.261Z,12.28
2022-09-02T20:21:45.871Z,12.18
2022-09-02T20:24:33.312Z,12.16
2022-09-02T20:27:33.225Z,12.09
2022-09-02T20:30:20.927Z,11.88
2022-09-02T20:33:17.534Z,11.93
2022-09-02T20:36:11.784Z,11.86
2022-09-02T20:39:18.246Z,11.80
2022-09-02T20:42:16.791Z,11.76
2022-09-02T20:45:11.179Z,11.69
2022-09-02T20:48:10.521Z,11.66
2022-09-02T20:51:06.697Z,11.59
2022-09-02T20:54:11.635Z,11.43
2022-09-02T20:57:11.163Z,11.48
2022-09-02T21:00:05.418Z,11.44
2022-09-02T21:02:58.626Z,11.38
2022-09-02T21:05:53.112Z,11.34
2022-09-02T21:08:48.840Z,11.30
2022-09-02T21:11:46.076Z,11.24
2022-09-02T21:14:40.269Z,11.21
2022-09-02T21:17:37.250Z,11.20
2022-09-02T21:20:29.814Z,11.14
2022-09-02T21:23:24.229Z,11.07
2022-09-02T21:26:17.244Z,11.02
2022-09-02T21:29:11.668Z,11.00
2022-09-02T21:32:01.830Z,10.89
2022-09-02T21:34:55.213Z,10.88
2022-09-02T21:37:45.303Z,10.84
2022-09-02T21:40:47.301Z,10.77
2022-09-02T21:43:48.780Z,10.71
2022-09-02T21:46:48.191Z,10.67
2022-09-02T21:49:58.354Z,10.62
2022-09-02T21:53:00.629Z,10.56
2022-09-02T21:55:59.984Z,10.49
2022-09-02T21:59:03.655Z,10.46
2022-09-02T22:02:01.967Z,10.41
2022-09-02T22:05:02.491Z,10.41
2022-09-02T22:07:56.189Z,10.41
2022-09-02T22:11:01.071Z,10.35
2022-09-02T22:13:50.486Z,10.31
2022-09-02T22:16:46.892Z,10.27
2022-09-02T22:19:39.199Z,10.28
2022-09-02T22:22:30.371Z,10.25
2022-09-02T22:25:17.334Z,10.27
2022-09-02T22:28:10.061Z,10.24
2022-09-02T22:31:02.209Z,10.21
2022-09-02T22:33:55.929Z,10.16
2022-09-02T22:36:52.245Z,10.14
2022-09-02T22:39:45.013Z,10.09
2022-09-02T22:42:36.022Z,10.13
2022-09-02T22:45:48.591Z,10.08
2022-09-02T22:48:59.188Z,10.06
2022-09-02T22:52:07.845Z,10.01
2022-09-02T22:54:54.735Z,9.90
2022-09-02T22:57:53.763Z,9.86
2022-09-02T23:00:48.100Z,9.80
2022-09-02T23:03:43.980Z,9.73
2022-09-02T23:06:33.622Z,9.71
2022-09-02T23:09:20.177Z,9.67
2022-09-02T23:12:18.813Z,9.64
2022-09-02T23:15:23.478Z,9.63
2022-09-02T23:18:19.174Z,9.57
2022-09-02T23:21:22.600Z,9.52
2022-09-02T23:24:19.931Z,9.52
2022-09-02T23:27:10.794Z,9.52
2022-09-02T23:29:57.912Z,9.47
2022-09-02T23:33:03.707Z,9.44
2022-09-02T23:36:00.045Z,9.40
2022-09-02T23:39:04.271Z,9.37
2022-09-02T23:41:53.534Z,9.36
2022-09-02T23:44:41.913Z,9.35
2022-09-02T23:47:42.592Z,9.29
2022-09-02T23:50:36.065Z,9.24
2022-09-02T23:53:25.979Z,9.19
2022-09-02T23:56:32.648Z,9.17
2022-09-02T23:59:36.630Z,9.19
